createdAt,value
2018-09-17T00:00:14.741Z,3.33
2018-09-17T00:02:42.847Z,3.40
2018-09-17T00:05:10.955Z,3.07
2018-09-17T00:07:39.042Z,3.40
2018-09-17T00:10:07.171Z,3.57
2018-09-17T00:12:35.291Z,2.43
2018-09-17T00:15:03.443Z,3.70
2018-09-17T00:17:31.557Z,4.03
2018-09-17T00:19:59.652Z,3.30
2018-09-17T00:22:27.851Z,3.57
2018-09-17T00:24:55.979Z,4.10
2018-09-17T00:27:24.088Z,3.47
2018-09-17T00:29:52.212Z,3.70
2018-09-17T00:32:20.379Z,3.60
2018-09-17T00:34:48.462Z,3.70
2018-09-17T00:37:16.562Z,3.60
2018-09-17T00:39:44.657Z,3.57
2018-09-17T00:42:12.779Z,3.20
2018-09-17T00:44:40.880Z,3.60
2018-09-17T00:47:08.982Z,3.33
2018-09-17T00:49:37.103Z,3.23
2018-09-17T00:52:05.305Z,3.67
2018-09-17T00:54:33.408Z,4.20
2018-09-17T00:57:01.494Z,3.27
2018-09-17T00:59:29.632Z,3.73
2018-09-17T01:01:57.736Z,3.60
2018-09-17T01:04:25.878Z,4.17
2018-09-17T01:06:54.073Z,3.57
2018-09-17T01:09:27.558Z,3.67
2018-09-17T01:11:55.681Z,3.53
2018-09-17T01:14:23.822Z,3.63
2018-09-17T01:16:51.945Z,3.67
2018-09-17T01:19:20.089Z,3.53
2018-09-17T01:21:48.211Z,3.40
2018-09-17T01:24:16.373Z,4.00
2018-09-17T01:26:44.501Z,4.07
2018-09-17T01:29:12.616Z,3.67
2018-09-17T01:31:40.768Z,3.80
2018-09-17T01:34:08.879Z,3.73
2018-09-17T01:36:37.015Z,3.90
2018-09-17T01:39:07.674Z,3.97
2018-09-17T01:41:35.879Z,4.47
2018-09-17T01:44:04.004Z,3.63
2018-09-17T01:46:32.598Z,4.37
2018-09-17T01:49:00.683Z,4.00
2018-09-17T01:51:28.784Z,3.37
2018-09-17T01:53:56.869Z,3.30
2018-09-17T01:56:24.981Z,3.23
2018-09-17T01:58:53.074Z,3.53
2018-09-17T02:01:21.302Z,3.43
2018-09-17T02:03:49.476Z,3.53
2018-09-17T02:06:17.581Z,3.87
2018-09-17T02:08:45.756Z,3.90
2018-09-17T02:11:13.891Z,3.63
2018-09-17T02:13:42.004Z,3.07
2018-09-17T02:16:10.133Z,3.60
2018-09-17T02:18:38.298Z,3.50
2018-09-17T02:21:06.595Z,3.53
2018-09-17T02:23:34.710Z,3.67
2018-09-17T02:26:02.847Z,3.60
2018-09-17T02:28:30.996Z,3.40
2018-09-17T02:30:59.116Z,3.30
2018-09-17T02:33:27.608Z,3.40
2018-09-17T02:35:55.793Z,3.10
2018-09-17T02:38:23.903Z,3.27
2018-09-17T02:40:52.109Z,3.17
2018-09-17T02:43:20.223Z,3.40
2018-09-17T02:45:48.338Z,3.00
2018-09-17T02:48:16.463Z,3.33
2018-09-17T02:50:44.608Z,3.27
2018-09-17T02:53:12.758Z,3.37
2018-09-17T02:55:40.875Z,2.90
2018-09-17T02:58:09.005Z,4.40
2018-09-17T03:00:37.102Z,2.90
2018-09-17T03:03:05.272Z,3.80
2018-09-17T03:05:33.384Z,3.43
2018-09-17T03:08:01.503Z,3.17
2018-09-17T03:10:29.616Z,3.10
2018-09-17T03:12:57.718Z,3.50
2018-09-17T03:15:37.348Z,3.13
2018-09-17T03:18:05.475Z,3.73
2018-09-17T03:20:33.559Z,2.83
2018-09-17T03:23:01.676Z,3.50
2018-09-17T03:25:29.773Z,3.90
2018-09-17T03:27:57.867Z,3.60
2018-09-17T03:30:25.995Z,3.00
2018-09-17T03:32:54.115Z,3.63
2018-09-17T03:35:22.207Z,4.33
2018-09-17T03:37:50.320Z,3.43
2018-09-17T03:40:18.425Z,3.63
2018-09-17T03:42:46.539Z,3.80
2018-09-17T03:45:14.623Z,3.30
2018-09-17T03:47:42.718Z,3.70
2018-09-17T03:50:10.803Z,2.97
2018-09-17T03:52:38.910Z,3.37
2018-09-17T03:55:07.001Z,3.43
2018-09-17T03:57:35.091Z,3.47
2018-09-17T04:00:03.180Z,3.07
2018-09-17T04:02:31.271Z,3.30
2018-09-17T04:04:59.359Z,3.80
2018-09-17T04:07:27.451Z,4.13
2018-09-17T04:09:55.538Z,3.57
2018-09-17T04:12:23.683Z,3.83
2018-09-17T04:14:51.824Z,3.70
2018-09-17T04:17:19.948Z,4.63
2018-09-17T04:19:48.053Z,3.00
2018-09-17T04:22:16.179Z,3.80
2018-09-17T04:24:44.287Z,4.20
2018-09-17T04:27:12.399Z,4.03
2018-09-17T04:29:40.515Z,4.20
2018-09-17T04:32:08.643Z,4.13
2018-09-17T04:34:36.755Z,4.47
2018-09-17T04:37:04.887Z,2.80
2018-09-17T04:39:33.027Z,3.67
2018-09-17T04:42:01.148Z,3.33
2018-09-17T04:44:29.266Z,4.27
2018-09-17T04:46:57.395Z,3.60
2018-09-17T04:49:25.519Z,3.40
2018-09-17T04:51:53.683Z,4.03
2018-09-17T04:54:21.822Z,3.97
2018-09-17T04:56:49.936Z,3.70
2018-09-17T04:59:18.079Z,3.83
2018-09-17T05:01:46.204Z,3.63
2018-09-17T05:04:14.326Z,3.00
2018-09-17T05:06:42.456Z,4.07
2018-09-17T05:09:10.601Z,3.90
2018-09-17T05:11:38.712Z,3.97
2018-09-17T05:14:06.835Z,3.20
2018-09-17T05:16:34.950Z,3.60
2018-09-17T05:19:03.080Z,3.53
2018-09-17T05:21:31.245Z,3.63
2018-09-17T05:23:59.396Z,3.80
2018-09-17T05:26:27.518Z,3.80
2018-09-17T05:28:55.652Z,3.97
2018-09-17T05:31:23.763Z,3.83
2018-09-17T05:33:52.078Z,4.10
2018-09-17T05:36:20.216Z,4.03
2018-09-17T05:38:48.339Z,3.80
2018-09-17T05:41:16.452Z,3.60
2018-09-17T05:43:44.573Z,3.50
2018-09-17T05:46:12.688Z,3.03
2018-09-17T05:48:40.803Z,2.93
2018-09-17T05:51:08.915Z,3.80
2018-09-17T05:53:37.043Z,3.50
2018-09-17T05:56:05.187Z,3.10
2018-09-17T05:58:33.303Z,3.37
2018-09-17T06:01:01.412Z,3.30
2018-09-17T06:03:29.569Z,3.10
2018-09-17T06:05:57.685Z,3.53
2018-09-17T06:08:25.838Z,3.40
2018-09-17T06:10:53.959Z,3.80
2018-09-17T06:13:22.068Z,3.57
2018-09-17T06:15:50.249Z,4.03
2018-09-17T06:18:18.376Z,3.70
2018-09-17T06:20:46.459Z,4.83
2018-09-17T06:23:14.597Z,3.90
2018-09-17T06:25:42.643Z,3.57
2018-09-17T06:28:10.747Z,3.97
2018-09-17T06:30:38.835Z,3.80
2018-09-17T06:33:06.922Z,4.13
2018-09-17T06:35:35.024Z,3.47
2018-09-17T06:38:03.108Z,2.90
2018-09-17T06:40:31.196Z,3.97
2018-09-17T06:42:59.337Z,4.37
2018-09-17T06:45:27.378Z,3.33
2018-09-17T06:47:55.497Z,3.57
2018-09-17T06:50:23.593Z,3.60
2018-09-17T06:52:51.716Z,3.30
2018-09-17T06:55:19.799Z,3.63
2018-09-17T06:57:47.898Z,3.27
2018-09-17T07:00:15.996Z,3.43
2018-09-17T07:02:44.114Z,3.60
2018-09-17T07:05:12.213Z,3.00
2018-09-17T07:07:40.299Z,3.20
2018-09-17T07:10:08.399Z,3.30
2018-09-17T07:12:37.339Z,3.27
2018-09-17T07:15:05.428Z,3.57
2018-09-17T07:17:33.519Z,4.33
2018-09-17T07:20:01.685Z,3.53
2018-09-17T07:22:29.776Z,3.63
2018-09-17T07:24:57.882Z,3.00
2018-09-17T07:27:25.998Z,3.20
2018-09-17T07:29:54.122Z,4.37
2018-09-17T07:32:22.495Z,2.80
2018-09-17T07:34:50.587Z,2.90
2018-09-17T07:37:18.687Z,3.17
2018-09-17T07:39:46.783Z,2.83
2018-09-17T07:42:14.876Z,3.07
2018-09-17T07:44:42.978Z,2.90
2018-09-17T07:47:11.066Z,2.43
2018-09-17T07:49:39.188Z,2.13
2018-09-17T07:52:07.289Z,2.50
2018-09-17T07:54:35.426Z,2.37
2018-09-17T07:57:03.511Z,2.60
2018-09-17T07:59:31.619Z,2.40
2018-09-17T08:01:59.742Z,2.13
2018-09-17T08:04:27.839Z,2.70
2018-09-17T08:06:55.926Z,2.60
2018-09-17T08:09:24.025Z,1.60
2018-09-17T08:11:52.165Z,2.57
2018-09-17T08:14:20.319Z,2.43
2018-09-17T08:16:48.439Z,2.60
2018-09-17T08:19:16.557Z,3.20
2018-09-17T08:21:44.703Z,2.63
2018-09-17T08:24:12.939Z,2.53
2018-09-17T08:26:41.063Z,2.87
2018-09-17T08:29:09.315Z,2.07
2018-09-17T08:31:37.437Z,2.37
2018-09-17T08:34:05.563Z,2.30
2018-09-17T08:36:33.700Z,2.30
2018-09-17T08:39:02.121Z,2.37
2018-09-17T08:41:30.244Z,2.00
2018-09-17T08:43:58.368Z,2.13
2018-09-17T08:46:26.558Z,1.90
2018-09-17T08:48:54.615Z,2.57
2018-09-17T08:51:22.816Z,2.90
2018-09-17T08:53:50.940Z,2.23
2018-09-17T08:56:26.296Z,3.57
2018-09-17T08:58:58.865Z,2.50
2018-09-17T09:01:32.421Z,2.30
2018-09-17T09:04:05.909Z,2.67
2018-09-17T09:06:39.415Z,2.40
2018-09-17T09:09:09.169Z,3.03
2018-09-17T09:11:42.834Z,2.60
2018-09-17T09:14:16.546Z,2.53
2018-09-17T09:16:44.644Z,2.10
2018-09-17T09:19:12.724Z,2.13
2018-09-17T09:21:40.839Z,2.70
2018-09-17T09:24:09.070Z,2.63
2018-09-17T09:26:37.181Z,1.93
2018-09-17T09:29:05.338Z,2.10
2018-09-17T09:31:33.488Z,2.57
2018-09-17T09:34:01.587Z,2.33
2018-09-17T09:36:29.681Z,2.23
2018-09-17T09:38:57.787Z,2.10
2018-09-17T09:41:25.912Z,1.87
2018-09-17T09:43:54.020Z,2.30
2018-09-17T09:46:22.308Z,1.90
2018-09-17T09:48:50.343Z,2.20
2018-09-17T09:51:18.432Z,2.47
2018-09-17T09:53:46.531Z,2.40
2018-09-17T09:56:16.795Z,2.10
2018-09-17T09:58:47.410Z,2.37
2018-09-17T10:01:21.000Z,2.50
2018-09-17T10:03:54.543Z,1.87
2018-09-17T10:06:22.632Z,1.83
2018-09-17T10:10:00.095Z,2.03
2018-09-17T10:12:33.670Z,2.50
2018-09-17T10:15:07.351Z,2.00
2018-09-17T10:17:40.903Z,2.10
2018-09-17T10:20:09.119Z,2.10
2018-09-17T10:22:37.321Z,2.03
2018-09-17T10:25:05.459Z,2.20
2018-09-17T10:27:33.631Z,2.27
2018-09-17T10:30:01.777Z,2.33
2018-09-17T10:32:29.869Z,3.23
2018-09-17T10:34:57.992Z,2.70
2018-09-17T10:37:26.126Z,2.23
2018-09-17T10:39:54.254Z,1.90
2018-09-17T10:42:22.415Z,2.60
2018-09-17T10:44:50.535Z,2.07
2018-09-17T10:47:18.659Z,2.13
2018-09-17T10:49:46.787Z,2.10
2018-09-17T10:52:14.906Z,2.10
2018-09-17T10:54:55.762Z,1.90
2018-09-17T10:57:23.913Z,2.47
2018-09-17T10:59:52.083Z,1.93
2018-09-17T11:02:20.226Z,2.00
2018-09-17T11:04:48.331Z,2.20
2018-09-17T11:07:16.560Z,2.30
2018-09-17T11:09:44.776Z,2.13
2018-09-17T11:12:12.913Z,1.90
2018-09-17T11:14:41.031Z,2.13
2018-09-17T11:17:09.216Z,2.50
2018-09-17T11:19:37.332Z,2.00
2018-09-17T11:22:05.470Z,1.83
2018-09-17T11:24:33.600Z,2.10
2018-09-17T11:27:01.731Z,2.20
2018-09-17T11:29:29.861Z,1.90
2018-09-17T11:31:58.000Z,2.73
2018-09-17T11:34:26.131Z,2.10
2018-09-17T11:36:54.270Z,3.00
2018-09-17T11:39:22.407Z,2.20
2018-09-17T11:41:50.532Z,2.30
2018-09-17T11:44:18.671Z,1.70
2018-09-17T11:46:46.783Z,1.83
2018-09-17T11:49:14.920Z,1.60
2018-09-17T11:51:43.062Z,1.60
2018-09-17T11:54:11.190Z,1.50
2018-09-17T11:56:39.319Z,2.17
2018-09-17T11:59:07.490Z,1.70
2018-09-17T12:01:41.044Z,2.40
2018-09-17T12:04:12.545Z,2.00
2018-09-17T12:06:46.177Z,2.03
2018-09-17T12:09:14.365Z,2.07
2018-09-17T12:11:42.788Z,1.80
2018-09-17T12:14:10.922Z,2.20
2018-09-17T12:16:39.051Z,1.70
2018-09-17T12:19:07.164Z,1.80
2018-09-17T12:21:35.273Z,2.00
2018-09-17T12:24:03.404Z,2.07
2018-09-17T12:26:31.459Z,1.73
2018-09-17T12:28:59.637Z,1.80
2018-09-17T12:31:27.743Z,2.00
2018-09-17T12:33:55.906Z,1.80
2018-09-17T12:36:23.926Z,1.80
2018-09-17T12:38:53.607Z,2.00
2018-09-17T12:41:23.612Z,1.80
2018-09-17T12:43:51.728Z,2.13
2018-09-17T12:46:19.848Z,2.00
2018-09-17T12:48:47.963Z,2.20
2018-09-17T12:51:16.084Z,1.90
2018-09-17T12:53:44.183Z,2.70
2018-09-17T12:56:12.284Z,2.00
2018-09-17T12:58:40.422Z,1.97
2018-09-17T13:01:08.519Z,2.00
2018-09-17T13:03:36.610Z,2.50
2018-09-17T13:06:04.728Z,2.23
2018-09-17T13:08:32.848Z,2.27
2018-09-17T13:11:00.983Z,2.23
2018-09-17T13:13:29.090Z,1.93
2018-09-17T13:15:57.227Z,3.07
2018-09-17T13:18:26.192Z,2.80
2018-09-17T13:20:54.332Z,2.50
2018-09-17T13:23:22.467Z,2.10
2018-09-17T13:25:50.616Z,2.37
2018-09-17T13:28:18.741Z,2.43
2018-09-17T13:30:46.890Z,2.70
2018-09-17T13:33:15.012Z,2.07
2018-09-17T13:35:43.139Z,2.13
2018-09-17T13:38:11.251Z,2.50
2018-09-17T13:40:39.384Z,1.80
2018-09-17T13:43:07.523Z,2.20
2018-09-17T13:45:35.662Z,2.60
2018-09-17T13:48:03.771Z,2.80
2018-09-17T13:50:31.920Z,2.17
2018-09-17T13:53:00.042Z,2.37
2018-09-17T13:55:28.154Z,2.07
2018-09-17T13:57:56.308Z,2.00
2018-09-17T14:00:24.503Z,2.43
2018-09-17T14:02:52.875Z,2.17
2018-09-17T14:05:20.999Z,2.50
2018-09-17T14:07:49.129Z,2.37
2018-09-17T14:10:17.333Z,2.43
2018-09-17T14:12:45.319Z,2.33
2018-09-17T14:15:13.422Z,2.50
2018-09-17T14:17:41.529Z,2.00
2018-09-17T14:20:09.642Z,2.20
2018-09-17T14:22:37.772Z,1.90
2018-09-17T14:25:05.992Z,3.33
2018-09-17T14:27:34.123Z,2.27
2018-09-17T14:30:02.211Z,2.77
2018-09-17T14:32:35.751Z,2.10
2018-09-17T14:35:03.851Z,2.30
2018-09-17T14:37:31.973Z,2.60
2018-09-17T14:40:00.075Z,2.17
2018-09-17T14:42:28.166Z,2.23
2018-09-17T14:44:56.290Z,2.40
2018-09-17T14:47:24.389Z,2.40
2018-09-17T14:49:52.555Z,2.50
2018-09-17T14:52:20.739Z,2.50
2018-09-17T14:54:48.825Z,3.10
2018-09-17T14:57:16.860Z,2.47
2018-09-17T14:59:45.032Z,2.53
2018-09-17T15:02:13.141Z,2.60
2018-09-17T15:04:41.255Z,2.50
2018-09-17T15:07:09.367Z,2.30
2018-09-17T15:09:37.612Z,2.60
2018-09-17T15:12:05.734Z,2.50
2018-09-17T15:14:33.897Z,2.50
2018-09-17T15:17:02.005Z,3.03
2018-09-17T15:19:30.111Z,2.97
2018-09-17T15:21:58.334Z,2.20
2018-09-17T15:24:26.404Z,2.60
2018-09-17T15:26:54.502Z,2.73
2018-09-17T15:29:22.652Z,2.50
2018-09-17T15:31:50.746Z,3.07
2018-09-17T15:34:18.913Z,2.33
2018-09-17T15:36:47.003Z,2.40
2018-09-17T15:39:15.138Z,3.20
2018-09-17T15:41:43.179Z,2.60
2018-09-17T15:44:11.758Z,2.60
2018-09-17T15:46:39.827Z,2.63
2018-09-17T15:49:07.921Z,2.90
2018-09-17T15:51:36.070Z,3.03
2018-09-17T15:54:04.174Z,2.17
2018-09-17T15:56:32.264Z,2.50
2018-09-17T15:59:00.487Z,2.50
2018-09-17T16:01:28.583Z,2.70
2018-09-17T16:03:57.127Z,2.20
2018-09-17T16:06:25.224Z,2.60
2018-09-17T16:08:53.351Z,3.40
2018-09-17T16:11:21.871Z,2.63
2018-09-17T16:13:50.028Z,3.23
2018-09-17T16:16:18.118Z,2.50
2018-09-17T16:18:46.227Z,1.90
2018-09-17T16:21:14.315Z,2.80
2018-09-17T16:23:42.423Z,3.50
2018-09-17T16:26:10.547Z,2.90
2018-09-17T16:28:38.639Z,2.90
2018-09-17T16:31:06.764Z,2.77
2018-09-17T16:33:34.885Z,2.70
2018-09-17T16:36:02.973Z,2.37
2018-09-17T16:38:31.088Z,3.00
2018-09-17T16:40:59.191Z,2.30
2018-09-17T16:43:27.299Z,2.50
2018-09-17T16:45:55.431Z,2.77
2018-09-17T16:48:23.783Z,2.60
2018-09-17T16:50:51.911Z,2.83
2018-09-17T16:53:20.126Z,2.40
2018-09-17T16:55:48.123Z,2.40
2018-09-17T16:58:16.228Z,2.60
2018-09-17T17:00:44.334Z,2.37
2018-09-17T17:03:12.437Z,2.23
2018-09-17T17:05:40.561Z,2.47
2018-09-17T17:08:08.632Z,2.90
2018-09-17T17:10:36.729Z,2.90
2018-09-17T17:13:04.857Z,2.20
2018-09-17T17:15:32.947Z,2.47
2018-09-17T17:18:01.027Z,2.93
2018-09-17T17:20:29.163Z,2.90
2018-09-17T17:22:57.269Z,3.00
2018-09-17T17:25:25.370Z,2.13
2018-09-17T17:27:53.586Z,2.97
2018-09-17T17:30:21.614Z,3.03
2018-09-17T17:32:49.738Z,2.50
2018-09-17T17:35:17.835Z,2.80
2018-09-17T17:37:45.937Z,3.03
2018-09-17T17:40:14.125Z,2.93
2018-09-17T17:42:42.185Z,2.37
2018-09-17T17:45:10.277Z,2.87
2018-09-17T17:47:38.491Z,2.70
2018-09-17T17:50:06.717Z,3.10
2018-09-17T17:52:34.799Z,2.70
2018-09-17T17:55:02.984Z,2.90
2018-09-17T17:57:31.088Z,2.77
2018-09-17T17:59:59.423Z,2.80
2018-09-17T18:02:27.539Z,2.30
2018-09-17T18:04:55.659Z,2.50
2018-09-17T18:07:23.743Z,2.37
2018-09-17T18:09:51.859Z,2.30
2018-09-17T18:12:19.979Z,3.30
2018-09-17T18:14:48.137Z,3.17
2018-09-17T18:17:16.214Z,3.00
2018-09-17T18:19:44.503Z,3.17
2018-09-17T18:22:12.667Z,3.23
2018-09-17T18:24:40.767Z,3.47
2018-09-17T18:27:08.941Z,3.60
2018-09-17T18:29:37.036Z,3.90
2018-09-17T18:32:05.126Z,3.80
2018-09-17T18:34:33.319Z,2.97
2018-09-17T18:37:01.491Z,3.30
2018-09-17T18:39:29.909Z,3.50
2018-09-17T18:41:57.890Z,3.70
2018-09-17T18:44:26.007Z,3.90
2018-09-17T18:46:54.100Z,3.30
2018-09-17T18:49:22.226Z,3.23
2018-09-17T18:51:50.315Z,3.73
2018-09-17T18:54:18.507Z,3.43
2018-09-17T18:56:46.551Z,3.00
2018-09-17T18:59:14.655Z,4.00
2018-09-17T19:01:42.747Z,3.40
2018-09-17T19:04:10.896Z,3.30
2018-09-17T19:06:39.012Z,3.00
2018-09-17T19:09:07.932Z,3.20
2018-09-17T19:11:36.168Z,3.13
2018-09-17T19:14:09.552Z,4.57
2018-09-17T19:16:43.198Z,3.43
2018-09-17T19:19:11.310Z,3.00
2018-09-17T19:23:51.265Z,3.43
2018-09-17T19:26:19.418Z,3.07
2018-09-17T19:28:52.942Z,3.47
2018-09-17T19:31:21.028Z,3.80
2018-09-17T19:33:49.146Z,3.67
2018-09-17T19:36:17.295Z,3.50
2018-09-17T19:38:50.703Z,3.10
2018-09-17T19:41:18.867Z,3.53
2018-09-17T19:43:47.131Z,2.97
2018-09-17T19:46:16.431Z,3.13
2018-09-17T19:48:44.524Z,3.37
2018-09-17T19:51:18.102Z,3.17
2018-09-17T19:53:46.183Z,3.50
2018-09-17T19:56:14.295Z,3.60
2018-09-17T19:58:47.863Z,4.80
2018-09-17T20:01:15.972Z,3.50
2018-09-17T20:03:44.063Z,4.33
2018-09-17T20:06:17.743Z,3.70
2018-09-17T20:08:45.845Z,2.97
2018-09-17T20:11:13.994Z,3.20
2018-09-17T20:13:42.087Z,3.73
2018-09-17T20:16:10.188Z,3.63
2018-09-17T20:18:38.270Z,3.53
2018-09-17T20:21:06.775Z,3.30
2018-09-17T20:23:34.904Z,3.20
2018-09-17T20:26:03.009Z,3.80
2018-09-17T20:28:31.116Z,4.10
2018-09-17T20:30:59.249Z,3.83
2018-09-17T20:33:29.831Z,3.67
2018-09-17T20:35:57.995Z,3.80
2018-09-17T20:38:26.537Z,4.13
2018-09-17T20:40:54.650Z,4.30
2018-09-17T20:43:22.774Z,3.93
2018-09-17T20:45:51.130Z,4.20
2018-09-17T20:48:19.404Z,4.40
2018-09-17T20:50:47.625Z,4.17
2018-09-17T20:53:16.724Z,4.37
2018-09-17T20:55:44.848Z,4.03
2018-09-17T20:58:13.132Z,3.83
2018-09-17T21:00:41.239Z,3.77
2018-09-17T21:03:09.347Z,4.40
2018-09-17T21:05:37.447Z,3.73
2018-09-17T21:08:05.763Z,4.07
2018-09-17T21:10:33.891Z,4.47
2018-09-17T21:13:02.091Z,3.97
2018-09-17T21:15:30.085Z,4.40
2018-09-17T21:17:58.196Z,4.10
2018-09-17T21:20:26.534Z,5.33
2018-09-17T21:22:54.675Z,4.17
2018-09-17T21:25:22.883Z,4.13
2018-09-17T21:27:50.888Z,3.80
2018-09-17T21:30:18.991Z,4.40
2018-09-17T21:32:47.092Z,3.97
2018-09-17T21:35:15.293Z,4.00
2018-09-17T21:37:43.351Z,4.23
2018-09-17T21:40:11.453Z,4.00
2018-09-17T21:42:39.545Z,4.83
2018-09-17T21:45:08.854Z,4.23
2018-09-17T21:47:36.961Z,4.63
2018-09-17T21:50:05.059Z,4.00
2018-09-17T21:52:33.235Z,4.80
2018-09-17T21:55:01.253Z,4.90
2018-09-17T21:57:29.351Z,4.77
2018-09-17T21:59:57.462Z,5.00
2018-09-17T22:02:25.592Z,4.73
2018-09-17T22:04:53.714Z,4.90
2018-09-17T22:07:21.803Z,5.10
2018-09-17T22:09:49.906Z,4.57
2018-09-17T22:12:18.054Z,5.10
2018-09-17T22:14:46.252Z,4.87
2018-09-17T22:17:14.414Z,4.63
2018-09-17T22:19:43.643Z,5.03
2018-09-17T22:22:11.790Z,4.37
2018-09-17T22:24:39.926Z,5.10
2018-09-17T22:27:08.046Z,4.80
2018-09-17T22:29:36.218Z,5.27
2018-09-17T22:32:04.339Z,4.73
2018-09-17T22:34:32.468Z,4.70
2018-09-17T22:37:00.627Z,4.60
2018-09-17T22:39:28.746Z,4.80
2018-09-17T22:41:56.883Z,4.90
2018-09-17T22:44:25.011Z,5.40
2018-09-17T22:46:53.261Z,4.83
2018-09-17T22:49:21.399Z,4.00
2018-09-17T22:51:49.698Z,5.80
2018-09-17T22:54:17.814Z,4.83
2018-09-17T22:56:45.943Z,6.00
2018-09-17T22:59:14.120Z,5.47
2018-09-17T23:01:42.233Z,4.83
2018-09-17T23:04:10.367Z,5.57
2018-09-17T23:06:38.487Z,5.40
2018-09-17T23:09:08.330Z,4.60
2018-09-17T23:11:36.419Z,4.47
2018-09-17T23:14:04.508Z,5.10
2018-09-17T23:16:32.611Z,6.00
2018-09-17T23:19:00.707Z,5.03
2018-09-17T23:21:28.822Z,5.50
2018-09-17T23:23:56.918Z,4.93
2018-09-17T23:26:24.993Z,5.50
2018-09-17T23:28:53.118Z,5.33
2018-09-17T23:31:21.204Z,4.93
2018-09-17T23:33:49.306Z,5.40
2018-09-17T23:36:17.407Z,4.60
2018-09-17T23:38:45.512Z,5.70
2018-09-17T23:41:13.610Z,5.40
2018-09-17T23:43:41.699Z,5.40
2018-09-17T23:46:09.795Z,5.43
2018-09-17T23:48:37.902Z,4.67
2018-09-17T23:51:06.054Z,4.43
2018-09-17T23:53:34.145Z,5.00
2018-09-17T23:56:02.247Z,4.47
2018-09-17T23:58:30.351Z,4.77
